Time;durP1;ratioP1;P1;durP2;ratioP2;P2;SDS_P1;SDS_P2;PMS_P1;PMS_P2;Temp;Humidity;BMP_temperature;BMP_pressure;BME280_temperature;BME280_humidity;BME280_pressure;Samples;Min_cycle;Max_cycle;Signal;HPM_P1;HPM_P2
2022/10/07 00:01:50;;;;;;;23.95;6.95;;;;;;;7.80;100.00;162604.34;4992616;28;20382;-61
2022/10/07 00:04:16;;;;;;;9.80;5.10;;;;;;;7.77;100.00;162597.63;4993382;28;20028;-61
2022/10/07 00:06:42;;;;;;;6.47;3.28;;;;;;;7.72;100.00;162584.16;4992025;28;20022;-61
2022/10/07 00:09:07;;;;;;;10.50;4.57;;;;;;;7.70;100.00;162577.44;4993278;28;20022;-61
2022/10/07 00:11:33;;;;;;;15.70;6.00;;;;;;;7.67;100.00;162570.66;4991798;28;20022;-60
2022/10/07 00:14:02;;;;;;;13.85;4.68;;;;;;;7.69;100.00;162574.72;4993883;28;20152;-61
2022/10/07 00:16:31;;;;;;;14.70;5.57;;;;;;;7.71;100.00;162580.09;4993083;28;20030;-61
2022/10/07 00:18:59;;;;;;;10.65;5.07;;;;;;;7.71;100.00;162581.47;4991776;28;20047;-61
2022/10/07 00:21:27;;;;;;;8.90;4.00;;;;;;;7.71;100.00;162580.09;4993105;28;20041;-60
2022/10/07 00:23:52;;;;;;;12.20;4.72;;;;;;;7.68;100.00;162573.34;4992241;28;20525;-60
2022/10/07 00:26:23;;;;;;;6.25;3.72;;;;;;;7.68;100.00;162572.03;4992974;28;20026;-60
2022/10/07 00:28:49;;;;;;;9.65;3.92;;;;;;;7.70;100.00;162577.44;4992257;28;20060;-62
2022/10/07 00:31:26;;;;;;;9.88;6.15;;;;;;;7.68;100.00;162573.34;4992577;28;20546;-61
2022/10/07 00:33:52;;;;;;;10.13;4.15;;;;;;;7.71;100.00;162580.09;4991393;28;20046;-62
2022/10/07 00:36:22;;;;;;;7.88;4.55;;;;;;;7.71;100.00;162580.09;4992757;28;20030;-62
2022/10/07 00:38:56;;;;;;;10.93;4.53;;;;;;;7.69;100.00;162576.06;4991830;28;20042;-62
2022/10/07 00:41:25;;;;;;;8.60;4.90;;;;;;;7.67;100.00;162569.31;4992728;28;20026;-62
2022/10/07 00:43:50;;;;;;;6.28;3.97;;;;;;;7.63;100.00;162561.22;4991520;28;20057;-62
2022/10/07 00:46:34;;;;;;;9.80;5.15;;;;;;;7.62;100.00;162558.56;4992942;28;20030;-61
2022/10/07 00:49:08;;;;;;;12.52;7.05;;;;;;;7.58;100.00;162547.75;4991921;28;20113;-61
2022/10/07 00:51:35;;;;;;;14.95;7.65;;;;;;;7.62;100.00;162557.19;4972189;28;20398;-61
2022/10/07 00:54:03;;;;;;;16.17;4.80;;;;;;;7.59;100.00;162550.47;4987322;28;20133;-61
2022/10/07 00:56:30;;;;;;;10.15;4.03;;;;;;;7.62;100.00;162558.56;4991735;28;20058;-60
2022/10/07 00:58:58;;;;;;;11.43;5.15;;;;;;;7.62;100.00;162558.56;4992006;28;20034;-61
2022/10/07 01:01:24;;;;;;;13.43;4.07;;;;;;;7.61;100.00;162554.50;4992361;28;20030;-61
2022/10/07 01:03:49;;;;;;;12.77;6.75;;;;;;;7.63;100.00;162561.22;4991481;28;20125;-61
2022/10/07 01:06:15;;;;;;;23.52;5.57;;;;;;;7.61;100.00;162555.88;4992504;28;20578;-61
2022/10/07 01:08:42;;;;;;;9.80;5.20;;;;;;;7.56;100.00;162541.03;4991229;28;20472;-61
2022/10/07 01:11:34;;;;;;;14.63;5.68;;;;;;;7.57;100.00;162545.06;4992245;28;20026;-61
2022/10/07 01:14:11;;;;;;;13.18;4.85;;;;;;;7.57;100.00;162545.06;4990931;28;20062;-61
2022/10/07 01:17:18;;;;;;;12.17;5.63;;;;;;;7.58;100.00;162546.44;4990741;28;20394;-61
2022/10/07 01:20:19;;;;;;;11.55;5.88;;;;;;;7.61;100.00;162555.88;4989250;28;20405;-61
2022/10/07 01:22:52;;;;;;;15.55;5.55;;;;;;;7.63;100.00;162561.22;4982642;28;20038;-61
2022/10/07 01:25:31;;;;;;;11.40;3.85;;;;;;;7.65;100.00;162563.94;4991696;28;20122;-61
2022/10/07 01:28:22;;;;;;;;;;;;;;;7.68;100.00;162572.03;4991682;28;20066;-61
2022/10/07 01:30:53;;;;;;;8.05;4.20;;;;;;;7.65;100.00;162565.31;4989931;28;19914;-59
2022/10/07 01:33:26;;;;;;;14.20;6.32;;;;;;;7.64;100.00;162562.59;4990155;28;20422;-59
2022/10/07 01:35:54;;;;;;;12.52;5.47;;;;;;;7.62;100.00;162558.56;4992483;28;20394;-60
2022/10/07 01:38:22;;;;;;;13.80;4.88;;;;;;;7.61;100.00;162555.88;4988497;28;20042;-60
2022/10/07 01:40:54;;;;;;;13.07;5.90;;;;;;;7.62;100.00;162558.56;4972680;28;20027;-60
2022/10/07 01:43:21;;;;;;;14.82;6.18;;;;;;;7.59;100.00;162549.13;4971064;28;20051;-60
2022/10/07 01:45:47;;;;;;;10.27;4.40;;;;;;;7.56;100.00;162542.38;4979851;28;20431;-61
2022/10/07 01:48:14;;;;;;;11.65;4.20;;;;;;;7.52;100.00;162530.28;4990107;28;20104;-60
2022/10/07 01:50:40;;;;;;;7.60;3.60;;;;;;;7.49;100.00;162523.50;4991821;28;20454;-60
2022/10/07 01:53:11;;;;;;;12.35;5.35;;;;;;;7.45;100.00;162514.06;4990479;28;20122;-60
2022/10/07 01:55:54;;;;;;;19.98;7.30;;;;;;;7.44;100.00;162510.06;4991826;28;20508;-60
2022/10/07 01:58:44;;;;;;;21.67;6.18;;;;;;;7.43;100.00;162507.34;4990133;28;20046;-60
2022/10/07 02:01:26;;;;;;;14.48;5.20;;;;;;;7.42;100.00;162504.66;4977075;28;20031;-60
2022/10/07 02:04:16;;;;;;;18.65;4.90;;;;;;;7.37;100.00;162492.50;4990459;28;20044;-60
2022/10/07 02:07:16;;;;;;;14.73;6.30;;;;;;;7.35;100.00;162485.78;4990300;28;20033;-60
2022/10/07 02:09:49;;;;;;;12.93;5.32;;;;;;;7.34;100.00;162483.09;4972428;28;20126;-60
2022/10/07 02:12:33;;;;;;;28.50;8.73;;;;;;;7.33;100.00;162480.44;4972684;28;20035;-59
2022/10/07 02:15:18;;;;;;;22.80;5.80;;;;;;;7.24;100.00;162458.88;4992082;28;20030;-61
2022/10/07 02:17:52;;;;;;;21.92;8.30;;;;;;;7.26;100.00;162464.22;4990016;28;20097;-60
2022/10/07 02:20:23;;;;;;;25.35;6.45;;;;;;;7.18;100.00;162442.72;4991562;28;20050;-60
2022/10/07 02:22:50;;;;;;;14.52;5.05;;;;;;;7.22;100.00;162453.47;4990007;28;20057;-60
2022/10/07 02:25:18;;;;;;;14.75;6.85;;;;;;;7.18;100.00;162441.34;4991265;28;20030;-60
2022/10/07 02:27:45;;;;;;;22.45;7.10;;;;;;;7.16;100.00;162437.31;4990331;28;20701;-61
2022/10/07 02:30:14;;;;;;;10.85;8.00;;;;;;;7.11;100.00;162425.19;4990888;28;20136;-61
2022/10/07 02:32:41;;;;;;;;;;;;;;;7.07;100.00;162413.06;4990161;28;20077;-62
2022/10/07 02:35:17;;;;;;;17.55;5.82;;;;;;;7.03;100.00;162402.31;4991027;28;20468;-61
2022/10/07 02:37:46;;;;;;;20.98;6.68;;;;;;;6.96;100.00;162384.78;4990085;28;20041;-61
2022/10/07 02:40:12;;;;;;;35.17;7.93;;;;;;;6.94;100.00;162380.78;4990994;28;20483;-61
2022/10/07 02:42:55;;;;;;;11.63;5.63;;;;;;;6.94;100.00;162379.41;4990055;28;20046;-61
2022/10/07 02:45:35;;;;;;;22.33;5.72;;;;;;;6.87;100.00;162361.91;4991015;28;20053;-61
2022/10/07 02:48:22;;;;;;;12.52;5.90;;;;;;;6.88;100.00;162364.63;4989721;28;20521;-62
2022/10/07 02:50:52;;;;;;;13.68;6.30;;;;;;;6.83;100.00;162351.13;4991724;28;20030;-61
2022/10/07 02:53:20;;;;;;;16.15;9.50;;;;;;;6.85;100.00;162355.19;4989111;28;20062;-61
2022/10/07 02:55:49;;;;;;;19.25;7.43;;;;;;;6.82;100.00;162348.41;4991287;28;20042;-60
2022/10/07 02:58:16;;;;;;;26.92;7.50;;;;;;;6.84;100.00;162353.81;4989533;28;20793;-59
2022/10/07 03:00:49;;;;;;;14.27;5.97;;;;;;;6.85;100.00;162356.53;4990761;28;20034;-63
2022/10/07 03:03:15;;;;;;;16.95;6.38;;;;;;;6.81;100.00;162345.78;4989578;28;20101;-61
2022/10/07 03:05:41;;;;;;;26.20;8.27;;;;;;;6.81;100.00;162345.78;4991436;28;20030;-62
2022/10/07 03:08:08;;;;;;;36.60;8.07;;;;;;;6.78;100.00;162339.00;4989260;28;20521;-62
2022/10/07 03:10:34;;;;;;;12.98;6.15;;;;;;;6.78;100.00;162337.66;4991195;28;20027;-62
2022/10/07 03:13:03;;;;;;;10.82;6.63;;;;;;;6.79;100.00;162340.38;4989683;28;20457;-62
2022/10/07 03:15:29;;;;;;;21.65;7.53;;;;;;;6.79;100.00;162340.38;4990458;28;20022;-62
2022/10/07 03:17:55;;;;;;;19.02;7.07;;;;;;;6.80;100.00;162344.41;4989826;28;20070;-62
2022/10/07 03:20:21;;;;;;;42.72;9.55;;;;;;;6.80;100.00;162343.06;4990943;28;20045;-62
2022/10/07 03:22:46;;;;;;;14.55;6.13;;;;;;;6.79;100.00;162340.38;4992067;28;20141;-62
2022/10/07 03:25:13;;;;;;;15.10;6.22;;;;;;;6.80;100.00;162343.06;4994559;28;20026;-62
2022/10/07 03:27:41;;;;;;;19.88;8.25;;;;;;;6.78;100.00;162339.00;4993345;28;20074;-62
2022/10/07 03:30:07;;;;;;;16.48;7.95;;;;;;;6.81;100.00;162347.09;4993575;28;20386;-62
2022/10/07 03:32:33;;;;;;;19.08;6.47;;;;;;;6.83;100.00;162351.13;4992420;28;20081;-62
2022/10/07 03:34:58;;;;;;;23.15;6.88;;;;;;;6.85;100.00;162356.53;4994359;28;20026;-62
2022/10/07 03:37:23;;;;;;;15.05;5.00;;;;;;;6.81;100.00;162347.09;4992230;28;20046;-62
2022/10/07 03:39:49;;;;;;;25.55;8.30;;;;;;;6.81;100.00;162347.09;4994504;28;20080;-62
2022/10/07 03:42:15;;;;;;;18.83;7.80;;;;;;;6.80;100.00;162343.06;4992635;28;20570;-62
2022/10/07 03:44:40;;;;;;;14.48;5.68;;;;;;;6.76;100.00;162333.66;4993928;28;20053;-61
2022/10/07 03:47:07;;;;;;;18.55;7.10;;;;;;;6.75;100.00;162330.94;4992708;28;20080;-61
2022/10/07 03:49:33;;;;;;;16.35;7.20;;;;;;;6.77;100.00;162334.97;4994403;28;20101;-61
2022/10/07 03:51:59;;;;;;;32.60;9.25;;;;;;;6.76;100.00;162332.28;4992046;28;20130;-61
2022/10/07 03:54:25;;;;;;;25.52;7.97;;;;;;;6.73;100.00;162325.53;4994234;28;20061;-62
2022/10/07 03:56:50;;;;;;;18.80;7.28;;;;;;;6.73;100.00;162324.22;4992811;28;20042;-61
2022/10/07 03:59:16;;;;;;;13.30;5.65;;;;;;;6.70;100.00;162317.50;4992820;28;20493;-61
2022/10/07 04:01:41;;;;;;;18.13;7.78;;;;;;;6.67;100.00;162310.72;4992706;28;20429;-60
2022/10/07 04:04:06;;;;;;;12.07;6.45;;;;;;;6.67;100.00;162310.72;4993551;28;20026;-60
2022/10/07 04:06:32;;;;;;;31.75;10.20;;;;;;;6.71;100.00;162320.16;4992245;28;20027;-59
2022/10/07 04:08:58;;;;;;;13.75;7.00;;;;;;;6.70;100.00;162317.50;4994270;28;20034;-60
2022/10/07 04:11:23;;;;;;;13.52;6.50;;;;;;;6.66;100.00;162308.03;4993485;28;20529;-60
2022/10/07 04:13:49;;;;;;;22.70;7.63;;;;;;;6.67;100.00;162310.72;4992182;28;20125;-60
2022/10/07 04:16:14;;;;;;;41.95;9.70;;;;;;;6.69;100.00;162313.44;4993479;28;20097;-59
2022/10/07 04:18:42;;;;;;;22.52;7.18;;;;;;;6.67;100.00;162310.72;4992037;28;20042;-60
2022/10/07 04:21:08;;;;;;;21.10;7.97;;;;;;;6.67;100.00;162310.72;4993263;28;20030;-59
2022/10/07 04:23:34;;;;;;;16.15;9.15;;;;;;;6.68;100.00;162312.09;4991699;28;20475;-59
2022/10/07 04:26:00;;;;;;;23.55;8.05;;;;;;;6.68;100.00;162312.09;4993893;28;20101;-60
2022/10/07 04:28:26;;;;;;;15.02;7.82;;;;;;;6.70;100.00;162316.13;4991338;28;20119;-60
2022/10/07 04:30:52;;;;;;;25.42;10.55;;;;;;;6.73;100.00;162324.22;4993554;28;20033;-60
2022/10/07 04:33:20;;;;;;;17.42;7.25;;;;;;;6.77;100.00;162334.97;4990253;28;20117;-60
2022/10/07 04:35:46;;;;;;;17.67;7.85;;;;;;;6.77;100.00;162336.34;4993776;28;20022;-60
2022/10/07 04:38:12;;;;;;;15.15;7.20;;;;;;;6.79;100.00;162340.38;4991141;28;20093;-60
2022/10/07 04:40:40;;;;;;;18.88;7.65;;;;;;;6.78;100.00;162337.66;4992978;28;20053;-60
2022/10/07 04:43:25;;;;;;;25.85;8.80;;;;;;;6.76;100.00;162333.66;4991670;28;20038;-60
2022/10/07 04:46:08;;;;;;;19.60;5.50;;;;;;;6.79;100.00;162340.38;4993356;28;20033;-60
2022/10/07 04:48:34;;;;;;;41.75;8.02;;;;;;;6.76;100.00;162332.28;4991276;28;20442;-60
2022/10/07 04:51:04;;;;;;;20.40;8.32;;;;;;;6.77;100.00;162334.97;4992971;28;20053;-59
2022/10/07 04:53:30;;;;;;;19.70;8.63;;;;;;;6.83;100.00;162351.13;4991717;28;20034;-59
2022/10/07 04:55:56;;;;;;;16.98;8.18;;;;;;;6.80;100.00;162343.06;4993138;28;20084;-60
2022/10/07 04:58:22;;;;;;;21.83;8.02;;;;;;;6.79;100.00;162340.38;4990672;28;20068;-60
2022/10/07 05:00:50;;;;;;;19.55;9.00;;;;;;;6.78;100.00;162337.66;4992483;28;20034;-60
2022/10/07 05:03:16;;;;;;;25.00;8.90;;;;;;;6.78;100.00;162337.66;4991039;28;20510;-61
2022/10/07 05:05:44;;;;;;;18.55;6.85;;;;;;;6.76;100.00;162332.28;4992857;28;20389;-61
2022/10/07 05:08:11;;;;;;;19.20;8.73;;;;;;;6.70;100.00;162316.13;4991240;28;20089;-60
2022/10/07 05:10:40;;;;;;;29.83;7.57;;;;;;;6.67;100.00;162310.72;4992222;28;20597;-61
2022/10/07 05:13:06;;;;;;;35.60;8.48;;;;;;;6.66;100.00;162308.03;4990305;28;20053;-61
2022/10/07 05:15:32;;;;;;;24.60;8.25;;;;;;;6.63;100.00;162299.97;4992610;28;20023;-59
2022/10/07 05:17:57;;;;;;;33.45;8.90;;;;;;;6.65;100.00;162305.38;4991233;28;20521;-59
2022/10/07 05:20:23;;;;;;;24.17;7.75;;;;;;;6.64;100.00;162302.69;4991908;28;20353;-59
2022/10/07 05:22:48;;;;;;;30.70;11.43;;;;;;;6.63;100.00;162299.97;4990995;28;20074;-59
2022/10/07 05:25:14;;;;;;;27.23;7.88;;;;;;;6.62;100.00;162297.28;4992010;28;20026;-60
2022/10/07 05:27:39;;;;;;;19.05;6.55;;;;;;;6.61;100.00;162294.56;4990586;28;20042;-60
2022/10/07 05:30:06;;;;;;;22.83;8.70;;;;;;;6.63;100.00;162298.59;4991657;28;20019;-60
2022/10/07 05:32:31;;;;;;;22.73;8.70;;;;;;;6.60;100.00;162291.88;4990130;28;20061;-60
2022/10/07 05:34:57;;;;;;;20.92;7.85;;;;;;;6.60;100.00;162291.88;4991669;28;20116;-60
2022/10/07 05:37:22;;;;;;;20.25;10.45;;;;;;;6.60;100.00;162290.56;4990021;28;20054;-60
2022/10/07 05:39:48;;;;;;;16.80;8.32;;;;;;;6.59;100.00;162289.19;4992554;28;20023;-60
2022/10/07 05:42:13;;;;;;;17.95;8.50;;;;;;;6.61;100.00;162294.56;4990014;28;20049;-60
2022/10/07 05:44:38;;;;;;;13.77;7.47;;;;;;;6.63;100.00;162299.97;4991443;28;20088;-61
2022/10/07 05:47:04;;;;;;;21.00;8.27;;;;;;;6.61;100.00;162294.56;4990553;28;20039;-60
2022/10/07 05:49:29;;;;;;;13.25;5.88;;;;;;;6.61;100.00;162294.56;4991902;28;20045;-60
2022/10/07 05:51:55;;;;;;;20.58;9.40;;;;;;;6.61;100.00;162293.25;4990131;28;20046;-60
2022/10/07 05:54:21;;;;;;;38.55;8.95;;;;;;;6.60;100.00;162291.88;4990773;28;20037;-59
2022/10/07 05:56:46;;;;;;;23.27;7.80;;;;;;;6.59;100.00;162289.19;4990857;28;20113;-60
2022/10/07 05:59:12;;;;;;;21.42;9.43;;;;;;;6.60;100.00;162291.88;4991250;28;20027;-60
2022/10/07 06:01:37;;;;;;;22.25;6.93;;;;;;;6.63;100.00;162299.97;4990461;28;20037;-60
2022/10/07 06:04:05;;;;;;;20.02;8.02;;;;;;;6.63;100.00;162299.97;4991125;28;20014;-60
2022/10/07 06:06:30;;;;;;;17.13;7.38;;;;;;;6.67;100.00;162310.72;4990339;28;20092;-58
2022/10/07 06:13:06;;;;;;;17.77;7.22;;;;;;;6.72;100.00;162321.53;4991367;28;20022;-59
2022/10/07 06:14:25;;;;;;;23.05;8.38;;;;;;;6.83;100.00;162351.13;4991357;28;20394;-59
2022/10/07 06:16:51;;;;;;;19.50;7.78;;;;;;;6.86;100.00;162359.22;4990120;28;20046;-59
2022/10/07 06:19:21;;;;;;;19.90;9.13;;;;;;;6.93;100.00;162378.06;4989911;28;20030;-59
2022/10/07 06:21:47;;;;;;;20.00;6.78;;;;;;;7.01;100.00;162398.25;4988601;28;20029;-59
2022/10/07 06:24:12;;;;;;;15.43;7.43;;;;;;;7.08;100.00;162415.78;4990664;28;20034;-59
2022/10/07 06:26:37;;;;;;;18.20;7.07;;;;;;;7.16;100.00;162437.31;4989420;28;20022;-59
2022/10/07 06:29:03;;;;;;;15.93;5.63;;;;;;;7.24;100.00;162457.50;4989995;28;20022;-59
2022/10/07 06:31:28;;;;;;;18.85;7.18;;;;;;;7.33;100.00;162480.44;4989624;28;20043;-59
2022/10/07 06:33:54;;;;;;;16.52;7.03;;;;;;;7.38;100.00;162493.91;4989852;28;20399;-59
2022/10/07 06:36:19;;;;;;;24.27;6.90;;;;;;;7.47;100.00;162518.16;4989737;28;20034;-59
2022/10/07 06:38:46;;;;;;;22.77;8.35;;;;;;;7.53;100.00;162534.31;4988911;28;20049;-58
2022/10/07 06:41:11;;;;;;;17.33;6.47;;;;;;;7.63;100.00;162561.22;4989597;28;20039;-59
2022/10/07 06:43:37;;;;;;;10.00;6.30;;;;;;;7.73;100.00;162586.88;4987644;28;20100;-58
2022/10/07 06:46:04;;;;;;;17.70;7.43;;;;;;;7.79;100.00;162601.66;4990108;28;20027;-58
2022/10/07 06:48:31;;;;;;;21.70;7.80;;;;;;;7.86;100.00;162620.50;4989321;28;20089;-58
2022/10/07 06:50:57;;;;;;;29.98;6.70;;;;;;;7.93;100.00;162639.38;4989555;28;20036;-58
2022/10/07 06:53:23;;;;;;;15.48;7.35;;;;;;;8.02;100.00;162662.31;4987973;28;20514;-58
2022/10/07 06:55:56;;;;;;;21.38;8.40;;;;;;;8.14;100.00;162693.31;4990789;28;20027;-59
2022/10/07 06:58:26;;;;;;;11.95;6.75;;;;;;;8.18;100.00;162704.06;4972657;28;20125;-58
2022/10/07 07:00:53;;;;;;;11.45;6.25;;;;;;;8.29;100.00;162731.03;4976582;28;20030;-58
2022/10/07 07:03:19;;;;;;;15.65;6.75;;;;;;;8.40;100.00;162762.06;4992953;28;20524;-58
2022/10/07 07:05:45;;;;;;;25.58;7.63;;;;;;;8.50;100.00;162787.72;4993138;28;20030;-58
2022/10/07 07:08:10;;;;;;;27.67;6.75;;;;;;;8.61;100.00;162814.63;4992228;28;20739;-58
2022/10/07 07:10:40;;;;;;;21.60;7.35;;;;;;;8.70;100.00;162838.91;4994432;28;20023;-58
2022/10/07 07:13:06;;;;;;;18.85;6.40;;;;;;;8.78;100.00;162859.16;4990974;28;20054;-58
2022/10/07 07:15:32;;;;;;;19.70;6.95;;;;;;;-146.58;100.00;69501.63;4994250;28;20041;-59
2022/10/07 07:17:57;;;;;;;14.73;7.82;;;;;;;-146.58;100.00;69501.63;4992419;28;20034;-58
2022/10/07 07:20:23;;;;;;;23.73;8.73;;;;;;;-146.58;100.00;69501.63;4992866;28;20064;-58
2022/10/07 07:22:48;;;;;;;14.52;6.43;;;;;;;-146.58;100.00;69501.63;4991403;28;20042;-58
2022/10/07 07:25:14;;;;;;;24.35;8.40;;;;;;;-146.58;100.00;69501.63;4993224;28;20038;-59
2022/10/07 07:27:40;;;;;;;20.95;6.38;;;;;;;-146.58;100.00;69501.63;4992201;28;20078;-58
2022/10/07 07:30:05;;;;;;;17.45;6.57;;;;;;;-146.58;100.00;69501.63;4992993;28;20022;-58
2022/10/07 07:32:31;;;;;;;18.65;7.32;;;;;;;-146.58;100.00;69501.63;4991283;28;20046;-58
2022/10/07 07:34:56;;;;;;;23.65;8.80;;;;;;;-146.58;100.00;69501.63;5012817;28;20408;-58
2022/10/07 07:37:23;;;;;;;13.20;6.78;;;;;;;-146.58;100.00;69501.63;4991643;28;20108;-58
2022/10/07 07:39:48;;;;;;;23.83;8.77;;;;;;;-146.58;100.00;69501.63;4994401;28;20070;-58
2022/10/07 07:42:14;;;;;;;16.90;7.10;;;;;;;-146.58;100.00;69501.63;4990930;28;20505;-59
2022/10/07 07:44:39;;;;;;;19.83;7.32;;;;;;;-146.58;100.00;69501.63;4992622;28;20579;-58
2022/10/07 07:47:06;;;;;;;17.27;6.53;;;;;;;-146.58;100.00;69501.63;4991821;28;20121;-58
2022/10/07 07:49:32;;;;;;;11.20;5.53;;;;;;;-146.58;100.00;69501.63;4993162;28;20624;-58
2022/10/07 07:51:59;;;;;;;13.80;6.63;;;;;;;-146.58;100.00;69501.63;4991135;28;20070;-58
2022/10/07 07:54:26;;;;;;;19.08;6.15;;;;;;;-146.58;100.00;69501.63;4992443;28;20041;-58
2022/10/07 07:56:52;;;;;;;21.90;7.55;;;;;;;-146.58;100.00;69501.63;4990020;28;20501;-59
2022/10/07 07:59:18;;;;;;;16.88;4.25;;;;;;;-146.58;100.00;69501.63;4990539;28;20486;-58
2022/10/07 08:01:44;;;;;;;12.35;5.78;;;;;;;-146.58;100.00;69501.63;4991695;28;20081;-58
2022/10/07 08:04:10;;;;;;;20.15;7.15;;;;;;;-146.58;100.00;69501.63;4993332;28;20097;-58
2022/10/07 08:06:36;;;;;;;11.82;4.93;;;;;;;8.78;100.00;162859.16;4991739;28;20026;-58
2022/10/07 08:09:02;;;;;;;13.85;6.10;;;;;;;11.69;100.00;163621.66;4991487;28;20022;-58
2022/10/07 08:11:28;;;;;;;18.77;5.45;;;;;;;11.92;100.00;163681.09;4992723;28;20022;-58
2022/10/07 08:13:54;;;;;;;15.90;5.25;;;;;;;-146.58;100.00;69501.63;4991580;28;20046;-58
2022/10/07 08:16:21;;;;;;;14.57;6.72;;;;;;;-146.58;100.00;69501.63;4993010;28;20054;-59
2022/10/07 08:18:49;;;;;;;10.07;4.18;;;;;;;12.59;100.00;163856.78;4991113;28;20461;-58
2022/10/07 08:21:17;;;;;;;14.40;4.17;;;;;;;-146.58;100.00;69501.63;4993065;28;20027;-58
2022/10/07 08:23:42;;;;;;;19.67;4.10;;;;;;;12.70;100.00;163886.50;4991479;28;20048;-58
2022/10/07 08:26:08;;;;;;;11.68;3.58;;;;;;;12.79;100.00;163908.13;4992774;28;20026;-59
2022/10/07 08:28:35;;;;;;;18.42;5.85;;;;;;;12.85;100.00;163924.34;4991007;28;20038;-59
2022/10/07 08:31:03;;;;;;;14.23;5.70;;;;;;;13.08;100.00;163983.81;4993100;28;20034;-58
2022/10/07 08:33:33;;;;;;;21.27;5.30;;;;;;;13.30;100.00;164043.31;4990844;28;20383;-58
2022/10/07 08:36:00;;;;;;;10.50;4.38;;;;;;;13.57;100.00;164112.31;4993000;28;20026;-58
2022/10/07 08:38:37;;;;;;;14.88;4.80;;;;;;;13.73;100.00;164154.28;4991108;28;20077;-59
2022/10/07 08:41:35;;;;;;;15.07;5.25;;;;;;;13.71;100.00;164148.84;4992835;28;20023;-58
2022/10/07 08:44:16;;;;;;;20.38;4.97;;;;;;;13.68;100.00;164142.09;4990428;28;20042;-59
2022/10/07 08:46:54;;;;;;;16.52;5.30;;;;;;;13.63;100.00;164128.53;4991374;28;20433;-58
2022/10/07 08:49:29;;;;;;;12.80;5.15;;;;;;;13.64;100.00;164132.63;4992263;28;20025;-58
2022/10/07 08:52:02;;;;;;;19.65;4.55;;;;;;;13.53;100.00;164102.88;4991490;28;20386;-58
2022/10/07 08:54:29;;;;;;;16.65;5.15;;;;;;;13.64;100.00;164131.25;4992555;28;20564;-59
2022/10/07 08:57:01;;;;;;;16.08;5.75;;;;;;;13.74;100.00;164156.94;4991708;28;20046;-59
2022/10/07 08:59:32;;;;;;;13.95;4.20;;;;;;;13.85;100.00;164185.41;4995170;28;20030;-58
2022/10/07 09:02:27;;;;;;;13.10;4.85;;;;;;;14.02;100.00;164230.03;4990506;28;20177;-59
2022/10/07 09:05:11;;;;;;;16.25;6.65;;;;;;;14.23;100.00;164285.44;4974016;28;20482;-58
2022/10/07 09:07:46;;;;;;;17.00;4.82;;;;;;;14.36;100.00;164319.28;4988707;28;20490;-58
2022/10/07 09:10:28;;;;;;;12.18;3.08;;;;;;;14.91;100.00;164464.09;4991884;28;20054;-58
2022/10/07 09:13:02;;;;;;;10.88;3.05;;;;;;;15.47;100.00;164611.66;4990219;28;20486;-59
2022/10/07 09:15:38;;;;;;;12.32;3.70;;;;;;;15.78;100.00;164691.56;4991558;28;20029;-58
2022/10/07 09:18:18;;;;;;;10.43;4.50;;;;;;;16.02;100.00;164755.22;4990579;28;20046;-58
2022/10/07 09:20:51;;;;;;;15.50;4.57;;;;;;;16.07;100.00;164768.75;4991470;28;20109;-59
2022/10/07 09:23:18;;;;;;;14.02;3.42;;;;;;;16.04;100.00;164760.66;4990481;28;20054;-58
2022/10/07 09:25:43;;;;;;;15.13;3.90;;;;;;;16.32;100.00;164833.78;4992077;28;20022;-58
2022/10/07 09:28:15;;;;;;;24.15;7.40;;;;;;;16.42;100.00;164860.84;4989496;28;20568;-58
2022/10/07 09:30:41;;;;;;;22.05;6.45;;;;;;;16.50;100.00;164882.53;4990682;28;20026;-58
2022/10/07 09:33:20;;;;;;;20.40;5.03;;;;;;;-146.58;100.00;69501.63;4989144;28;20410;-59
2022/10/07 09:35:52;;;;;;;19.83;3.78;;;;;;;-146.58;100.00;69501.63;4991321;28;20032;-58
2022/10/07 09:38:38;;;;;;;8.70;3.58;;;;;;;-146.58;100.00;69501.63;4990322;28;20042;-58
2022/10/07 09:41:15;;;;;;;9.55;3.53;;;;;;;-146.58;100.00;69501.63;4991593;28;20034;-58
2022/10/07 09:43:50;;;;;;;13.50;3.88;;;;;;;-146.58;100.00;69501.63;4989389;28;20066;-64
2022/10/07 09:46:55;;;;;;;9.38;3.85;;;;;;;-146.58;100.00;69501.63;4989723;28;20062;-58
2022/10/07 09:49:26;;;;;;;11.68;3.30;;;;;;;-146.58;100.00;69501.63;4969284;28;20414;-59
2022/10/07 09:52:15;;;;;;;8.45;4.10;;;;;;;-146.58;100.00;69501.63;4974034;28;20092;-58
2022/10/07 09:54:43;;;;;;;15.48;6.18;;;;;;;-146.58;100.00;69501.63;4991228;28;20509;-58
2022/10/07 09:57:31;;;;;;;11.10;4.45;;;;;;;-146.58;100.00;69501.63;4990177;28;20030;-58
2022/10/07 10:00:12;;;;;;;7.50;2.92;;;;;;;-146.58;100.00;69501.63;4991497;28;20035;-58
2022/10/07 10:02:46;;;;;;;13.65;4.53;;;;;;;-146.58;100.00;69501.63;4970569;28;20077;-58
2022/10/07 10:05:22;;;;;;;10.50;3.45;;;;;;;-146.58;100.00;69501.63;4976418;28;20038;-58
2022/10/07 10:07:52;;;;;;;17.80;3.70;;;;;;;-146.58;100.00;69501.63;4989626;28;20129;-58
2022/10/07 10:10:23;;;;;;;9.02;2.92;;;;;;;-146.58;100.00;69501.63;4989996;28;20033;-58
2022/10/07 10:12:50;;;;;;;13.77;3.38;;;;;;;-146.58;100.00;69501.63;4988865;28;20058;-58
2022/10/07 10:15:42;;;;;;;10.25;3.22;;;;;;;-146.58;100.00;69501.63;4990406;28;20026;-59
2022/10/07 10:18:37;;;;;;;13.50;4.00;;;;;;;-146.58;100.00;69501.63;4989488;28;20046;-59
2022/10/07 10:21:28;;;;;;;9.70;3.42;;;;;;;-146.58;100.00;69501.63;4991542;28;20022;-58
2022/10/07 10:24:05;;;;;;;13.73;3.55;;;;;;;-146.58;100.00;69501.63;4989459;28;20084;-58
2022/10/07 10:27:05;;;;;;;8.90;3.13;;;;;;;-146.58;100.00;69501.63;4990142;28;20121;-57
2022/10/07 10:29:40;;;;;;;18.63;5.50;;;;;;;-146.58;100.00;69501.63;4970833;28;20039;-59
2022/10/07 10:32:23;;;;;;;14.88;4.10;;;;;;;-146.58;100.00;69501.63;4990560;28;20043;-59
2022/10/07 10:35:13;;;;;;;7.65;4.38;;;;;;;-146.58;100.00;69501.63;4995338;28;20030;-59
2022/10/07 10:38:13;;;;;;;11.48;3.45;;;;;;;-146.58;100.00;69501.63;4993515;28;20042;-59
2022/10/07 10:41:04;;;;;;;14.77;4.28;;;;;;;-146.58;100.00;69501.63;4987819;28;20394;-59
2022/10/07 10:43:35;;;;;;;14.43;4.40;;;;;;;-146.58;100.00;69501.63;4971256;28;20125;-59
2022/10/07 10:46:19;;;;;;;9.55;4.53;;;;;;;-146.58;100.00;69501.63;4975444;28;20065;-58
2022/10/07 10:48:51;;;;;;;10.38;2.97;;;;;;;-146.58;100.00;69501.63;4980412;28;20030;-59
2022/10/07 10:51:34;;;;;;;13.02;3.22;;;;;;;-146.58;100.00;69501.63;4994838;28;20042;-58
2022/10/07 10:54:17;;;;;;;24.10;4.28;;;;;;;-146.58;100.00;69501.63;4992931;28;20184;-58
2022/10/07 10:56:57;;;;;;;14.02;4.35;;;;;;;-146.58;100.00;69501.63;4993212;28;20030;-58
2022/10/07 10:59:44;;;;;;;10.63;2.95;;;;;;;-146.58;100.00;69501.63;4994149;28;20033;-58
2022/10/07 11:02:34;;;;;;;19.33;6.35;;;;;;;-146.58;100.00;69501.63;4990822;28;20541;-59
2022/10/07 11:05:02;;;;;;;8.77;2.97;;;;;;;-146.58;100.00;69501.63;4993785;28;20381;-59
2022/10/07 11:07:34;;;;;;;17.80;4.50;;;;;;;-146.58;100.00;69501.63;4992961;28;20045;-59
2022/10/07 11:10:12;;;;;;;12.30;3.78;;;;;;;-146.58;100.00;69501.63;4994387;28;20026;-59
2022/10/07 11:12:40;;;;;;;;;;;;;;;-146.58;100.00;69501.63;4993536;28;20039;-59
2022/10/07 11:15:18;;;;;;;17.90;3.72;;;;;;;-146.58;100.00;69501.63;4994128;28;19909;-59
2022/10/07 11:17:46;;;;;;;8.70;3.13;;;;;;;-146.58;100.00;69501.63;4992449;28;20129;-58
2022/10/07 11:20:24;;;;;;;9.35;3.20;;;;;;;-146.58;100.00;69501.63;4993984;28;20504;-59
2022/10/07 11:23:08;;;;;;;13.50;3.58;;;;;;;-146.58;100.00;69501.63;4992873;28;20075;-59
2022/10/07 11:25:37;;;;;;;10.07;3.45;;;;;;;-146.58;100.00;69501.63;4994329;28;20053;-58
2022/10/07 11:28:15;;;;;;;17.30;4.82;;;;;;;-146.58;100.00;69501.63;4991387;28;20042;-59
2022/10/07 11:30:49;;;;;;;9.85;4.38;;;;;;;-146.58;100.00;69501.63;4985307;28;20323;-59
2022/10/07 11:33:30;;;;;;;9.65;3.38;;;;;;;-146.58;100.00;69501.63;4991878;28;20112;-59
2022/10/07 11:36:06;;;;;;;9.18;2.95;;;;;;;-146.58;100.00;69501.63;4992435;28;20041;-59